createdAt,value
2018-04-24T00:03:14.566Z,19.35
2018-04-24T00:09:05.222Z,19.15
2018-04-24T00:14:55.877Z,18.37
2018-04-24T00:20:46.556Z,17.62
2018-04-24T00:26:37.365Z,16.57
2018-04-24T00:32:27.938Z,18.1
2018-04-24T00:38:18.601Z,15.15
2018-04-24T00:44:09.320Z,16.03
2018-04-24T00:50:00.033Z,15.16
2018-04-24T00:55:50.669Z,14.7
2018-04-24T01:01:41.353Z,19.35
2018-04-24T01:07:32.034Z,17.88
2018-04-24T01:13:22.731Z,16.53
2018-04-24T01:19:13.422Z,13.7
2018-04-24T01:25:04.103Z,14.41
2018-04-24T01:30:54.739Z,15.56
2018-04-24T01:36:45.413Z,17.49
2018-04-24T01:42:36.118Z,19.27
2018-04-24T01:48:26.787Z,16.09
2018-04-24T01:54:17.478Z,14.73
2018-04-24T02:00:08.141Z,13.32
2018-04-24T02:05:58.827Z,20.56
2018-04-24T02:11:49.493Z,13.93
2018-04-24T02:17:40.244Z,17.03
2018-04-24T02:23:30.866Z,20.41
2018-04-24T02:29:21.528Z,21.82
2018-04-24T02:35:12.293Z,17.04
2018-04-24T02:41:02.889Z,22.08
2018-04-24T02:46:53.563Z,20.52
2018-04-24T02:52:44.299Z,18.19
2018-04-24T02:58:34.901Z,13.35
2018-04-24T03:04:25.630Z,12.95
2018-04-24T03:10:16.334Z,15.11
2018-04-24T03:16:06.968Z,17.29
2018-04-24T03:21:57.662Z,20.15
2018-04-24T03:27:48.311Z,18.98
2018-04-24T03:33:39.002Z,17.76
2018-04-24T03:39:29.715Z,19.5
2018-04-24T03:45:20.299Z,18.04
2018-04-24T03:51:11.021Z,15.77
2018-04-24T03:57:01.672Z,18.36
2018-04-24T04:02:52.372Z,17.72
2018-04-24T04:08:43.068Z,15.77
2018-04-24T04:14:33.692Z,13.85
2018-04-24T04:20:24.362Z,19.59
2018-04-24T04:26:15.021Z,17.39
2018-04-24T04:32:05.682Z,17.1
2018-04-24T04:37:56.341Z,21.48
2018-04-24T04:43:47.104Z,18.83
2018-04-24T04:49:37.683Z,18.5
2018-04-24T04:55:28.394Z,17.12
2018-04-24T05:01:19.037Z,20.02
2018-04-24T05:07:09.724Z,18.52
2018-04-24T05:13:00.440Z,19.59
2018-04-24T05:18:51.106Z,25.61
2018-04-24T05:24:41.730Z,26.26
2018-04-24T05:30:32.441Z,25.7
2018-04-24T05:36:23.059Z,31.38
2018-04-24T05:42:13.747Z,28.94
2018-04-24T05:48:04.434Z,29.84
2018-04-24T05:53:55.065Z,34.04
2018-04-24T05:59:45.770Z,30.06
2018-04-24T06:05:36.408Z,34.3
2018-04-24T06:11:27.085Z,27.62
2018-04-24T06:17:17.808Z,31.62
2018-04-24T06:23:08.493Z,30.31
2018-04-24T06:28:59.123Z,30.15
2018-04-24T06:34:49.825Z,33.18
2018-04-24T06:40:40.495Z,32.53
2018-04-24T06:46:31.191Z,34.29
2018-04-24T06:52:21.826Z,45.12
2018-04-24T06:58:12.604Z,33.71
2018-04-24T07:04:03.192Z,32.65
2018-04-24T07:09:53.820Z,28.35
2018-04-24T07:15:44.696Z,31.27
2018-04-24T07:21:35.185Z,29.9
2018-04-24T07:27:26.004Z,35.78
2018-04-24T07:33:16.732Z,33.66
2018-04-24T07:39:07.495Z,28.12
2018-04-24T07:44:58.169Z,36.78
2018-04-24T07:50:48.620Z,34.65
2018-04-24T07:56:39.298Z,33.59
2018-04-24T08:02:30.052Z,32.46
2018-04-24T08:08:20.704Z,30.15
2018-04-24T08:14:11.334Z,37.06
2018-04-24T08:20:02.069Z,27.18
2018-04-24T08:25:52.743Z,33.09
2018-04-24T08:31:43.469Z,32.34
2018-04-24T08:37:34.177Z,39.85
2018-04-24T08:43:24.825Z,30.2
2018-04-24T08:49:15.552Z,30.17
2018-04-24T08:55:06.227Z,28.54
2018-04-24T09:00:56.895Z,30.3
2018-04-24T09:06:47.619Z,31.45
2018-04-24T09:12:38.343Z,26.79
2018-04-24T09:18:29.026Z,22.5
2018-04-24T09:24:19.713Z,31.75
2018-04-24T09:30:10.526Z,31.48
2018-04-24T09:36:01.158Z,23.71
2018-04-24T09:41:51.897Z,21.75
2018-04-24T09:47:42.646Z,22.1
2018-04-24T09:53:33.330Z,21.81
2018-04-24T09:59:24.047Z,21.26
2018-04-24T10:05:14.740Z,24.09
2018-04-24T10:11:05.490Z,24.94
2018-04-24T10:16:56.217Z,20.54
2018-04-24T10:22:46.986Z,28.02
2018-04-24T10:28:37.647Z,18.94
2018-04-24T10:34:28.405Z,15.54
2018-04-24T10:40:19.164Z,21.67
2018-04-24T10:46:09.846Z,22.14
2018-04-24T10:52:00.659Z,16.81
2018-04-24T10:57:51.345Z,19.79
2018-04-24T11:03:42.103Z,25.63
2018-04-24T11:09:32.813Z,20.81
2018-04-24T11:15:23.589Z,22.99
2018-04-24T11:21:14.280Z,17.24
2018-04-24T11:27:05.062Z,16.98
2018-04-24T11:32:55.793Z,14.4
2018-04-24T11:38:46.537Z,14.26
2018-04-24T11:44:37.275Z,15.66
2018-04-24T11:50:28.019Z,17.6
2018-04-24T11:56:18.736Z,13.98
2018-04-24T12:02:09.476Z,17.83
2018-04-24T12:08:00.250Z,19.34
2018-04-24T12:13:51.027Z,22.5
2018-04-24T12:19:41.760Z,13.4
2018-04-24T12:25:32.554Z,15.03
2018-04-24T12:31:23.243Z,10.76
2018-04-24T12:37:14.007Z,14.97
2018-04-24T12:43:04.822Z,15.63
2018-04-24T12:48:55.583Z,8.02
2018-04-24T12:54:46.347Z,13.25
2018-04-24T13:00:37.071Z,12.03
2018-04-24T13:06:27.815Z,11.31
2018-04-24T13:12:18.531Z,10.86
2018-04-24T13:18:09.332Z,11.71
2018-04-24T13:24:00.061Z,13.61
2018-04-24T13:29:50.852Z,15.85
2018-04-24T13:35:41.624Z,17.46
2018-04-24T13:41:32.334Z,13.69
2018-04-24T13:47:23.193Z,11.58
2018-04-24T13:53:13.859Z,10.33
2018-04-24T13:59:04.612Z,14.26
2018-04-24T14:04:55.374Z,11.42
2018-04-24T14:10:46.138Z,11.35
2018-04-24T14:16:37.022Z,13.65
2018-04-24T14:22:27.681Z,12.4
2018-04-24T14:28:18.443Z,12.33
2018-04-24T14:34:09.232Z,9.35
2018-04-24T14:40:00.002Z,13.94
2018-04-24T14:45:50.769Z,10.47
2018-04-24T14:51:41.597Z,12.68
2018-04-24T14:57:32.286Z,15.63
2018-04-24T15:03:23.058Z,10.94
2018-04-24T15:09:13.792Z,16.68
2018-04-24T15:15:04.569Z,10.08
2018-04-24T15:20:55.331Z,8.81
2018-04-24T15:26:46.117Z,10.79
2018-04-24T15:32:36.917Z,9.93
2018-04-24T15:38:27.629Z,11.19
2018-04-24T15:44:18.399Z,8.58
2018-04-24T15:50:09.147Z,13.3
2018-04-24T15:55:59.894Z,17.89
2018-04-24T16:01:50.696Z,9.66
2018-04-24T16:07:41.442Z,14.16
2018-04-24T16:13:32.262Z,13.01
2018-04-24T16:19:23.020Z,13.58
2018-04-24T16:25:13.774Z,10.32
2018-04-24T16:31:04.517Z,11.65
2018-04-24T16:36:55.287Z,13.23
2018-04-24T16:42:46.011Z,10.97
2018-04-24T16:48:36.833Z,15.95
2018-04-24T16:54:27.582Z,19.59
2018-04-24T17:00:18.344Z,18.71
2018-04-24T17:06:09.103Z,12.14
2018-04-24T17:11:59.830Z,12.43
2018-04-24T17:17:50.635Z,14.35
2018-04-24T17:23:41.405Z,17.96
2018-04-24T17:29:32.132Z,17.78
2018-04-24T17:35:22.946Z,18.04
2018-04-24T17:41:13.647Z,15.4
2018-04-24T17:47:04.457Z,17.59
2018-04-24T17:52:55.180Z,15.98
2018-04-24T17:58:45.883Z,15.29
2018-04-24T18:04:36.646Z,13.83
2018-04-24T18:10:27.424Z,21.79
2018-04-24T18:16:18.199Z,14.91
2018-04-24T18:21:04.343Z,17.22
2018-04-24T18:26:55.138Z,13.5
2018-04-24T18:32:45.849Z,18.62
2018-04-24T18:38:36.585Z,18.11
2018-04-24T18:44:27.278Z,27.77
2018-04-24T18:50:18.053Z,23.81
2018-04-24T18:56:08.861Z,19.61
2018-04-24T19:02:02.601Z,17.45
2018-04-24T19:07:50.274Z,17.21
2018-04-24T19:13:40.979Z,19.31
2018-04-24T19:19:31.717Z,19.24
2018-04-24T19:25:22.478Z,17.09
2018-04-24T19:31:13.234Z,21.77
2018-04-24T19:37:03.922Z,19.41
2018-04-24T19:42:54.599Z,28.13
2018-04-24T19:48:45.336Z,21.65
2018-04-24T19:54:36.081Z,23.03
2018-04-24T20:00:26.747Z,19.29
2018-04-24T20:06:17.472Z,17.12
2018-04-24T20:12:08.153Z,22.46
2018-04-24T20:17:58.948Z,22.66
2018-04-24T20:23:49.642Z,20.6
2018-04-24T20:29:40.323Z,21.02
2018-04-24T20:35:31.051Z,19.29
2018-04-24T20:41:21.738Z,17.52
2018-04-24T20:47:12.438Z,16.67
2018-04-24T20:53:03.126Z,22.24
2018-04-24T20:58:53.897Z,14.99
2018-04-24T21:04:44.564Z,17.73
2018-04-24T21:10:35.257Z,13.04
2018-04-24T21:16:25.961Z,13.92
2018-04-24T21:22:16.679Z,12.52
2018-04-24T21:28:07.339Z,17.55
2018-04-24T21:33:58.154Z,17.66
2018-04-24T21:39:48.803Z,11.83
2018-04-24T21:45:39.442Z,19.52
2018-04-24T21:51:30.156Z,10.4
2018-04-24T21:57:20.835Z,16.07
2018-04-24T22:03:11.592Z,13.76
2018-04-24T22:09:02.296Z,12.6
2018-04-24T22:14:52.959Z,15.49
2018-04-24T22:20:43.661Z,12.76
2018-04-24T22:26:34.366Z,17.41
2018-04-24T22:32:25.094Z,13.77
2018-04-24T22:38:15.722Z,15.89
2018-04-24T22:44:06.472Z,15.12
2018-04-24T22:49:57.137Z,11.15
2018-04-24T22:55:47.800Z,17.04
2018-04-24T23:01:38.501Z,15.53
2018-04-24T23:07:29.185Z,14.37
2018-04-24T23:13:19.873Z,15.98
2018-04-24T23:19:10.571Z,20.73
2018-04-24T23:25:01.264Z,15.31
2018-04-24T23:30:51.971Z,12.6
2018-04-24T23:36:42.665Z,15.16
2018-04-24T23:42:33.353Z,11.86
2018-04-24T23:48:24.089Z,13.75
2018-04-24T23:54:14.709Z,15.41
